Time;durP1;ratioP1;P1;durP2;ratioP2;P2;SDS_P1;SDS_P2;PMS_P1;PMS_P2;Temp;Humidity;BMP_temperature;BMP_pressure;BME280_temperature;BME280_humidity;BME280_pressure;Samples;Min_cycle;Max_cycle;Signal;HPM_P1;HPM_P2
2023/03/19 00:02:05;;;;;;;1.77;0.90;;;;;;;9.52;100.00;100915.78;5043702;28;20051;-69
2023/03/19 00:04:30;;;;;;;1.70;0.98;;;;;;;9.49;100.00;100916.56;5030991;28;20021;-70
2023/03/19 00:06:55;;;;;;;1.52;1.10;;;;;;;9.49;100.00;100916.56;5031506;28;20021;-70
2023/03/19 00:09:21;;;;;;;1.83;1.05;;;;;;;9.50;100.00;100927.78;5030160;28;20116;-70
2023/03/19 00:11:47;;;;;;;2.15;1.02;;;;;;;9.50;100.00;100927.78;5032532;28;20385;-70
2023/03/19 00:14:13;;;;;;;2.20;1.48;;;;;;;9.50;100.00;100914.84;5040785;28;20051;-69
2023/03/19 00:16:38;;;;;;;1.92;1.05;;;;;;;9.49;100.00;100921.75;5035396;28;20017;-70
2023/03/19 00:19:04;;;;;;;2.25;0.98;;;;;;;9.51;100.00;100920.91;5031836;28;20025;-70
2023/03/19 00:21:30;;;;;;;1.65;0.82;;;;;;;9.50;100.00;100920.00;5031615;28;20013;-70
2023/03/19 00:23:59;;;;;;;2.38;1.17;;;;;;;9.49;100.00;100926.03;5031233;28;20029;-70
2023/03/19 00:26:26;;;;;;;1.65;1.10;;;;;;;9.51;100.00;100919.19;5032617;28;20112;-70
2023/03/19 00:28:51;;;;;;;2.83;1.35;;;;;;;9.51;100.00;100929.56;5030975;28;20488;-70
2023/03/19 00:31:16;;;;;;;1.75;1.52;;;;;;;9.53;100.00;100934.78;5032458;28;20104;-70
2023/03/19 00:33:42;;;;;;;1.80;1.35;;;;;;;9.53;100.00;100927.91;5031655;28;20024;-70
2023/03/19 00:36:09;;;;;;;2.50;1.13;;;;;;;9.55;100.00;100934.00;5032653;28;20017;-70
2023/03/19 00:38:35;;;;;;;1.83;1.38;;;;;;;9.54;100.00;100933.94;5031340;28;20019;-70
2023/03/19 00:41:01;;;;;;;2.45;1.38;;;;;;;9.54;100.00;100937.41;5032689;28;20435;-70
2023/03/19 00:43:27;;;;;;;2.20;1.60;;;;;;;9.54;100.00;100945.19;5034770;28;20033;-70
2023/03/19 00:45:53;;;;;;;2.70;1.90;;;;;;;9.56;100.00;100938.38;5056722;28;20218;-70
2023/03/19 00:48:18;;;;;;;4.35;1.75;;;;;;;9.54;100.00;100933.94;5032066;28;20029;-70
2023/03/19 00:50:43;;;;;;;3.05;1.90;;;;;;;9.52;100.00;100933.00;5029761;28;20470;-70
2023/03/19 00:53:09;;;;;;;2.13;1.85;;;;;;;9.53;100.00;100929.59;5030008;28;20045;-70
2023/03/19 00:55:34;;;;;;;3.65;2.03;;;;;;;9.54;100.00;100937.41;5033864;28;20017;-70
2023/03/19 00:58:00;;;;;;;3.35;2.10;;;;;;;9.55;100.00;100940.91;5039770;28;20049;-70
2023/03/19 01:00:25;;;;;;;4.13;2.13;;;;;;;9.54;100.00;100934.84;5045286;28;20078;-70
2023/03/19 01:02:51;;;;;;;3.22;2.20;;;;;;;9.53;100.00;100927.91;5049295;28;20104;-70
2023/03/19 01:05:16;;;;;;;2.83;2.05;;;;;;;9.54;100.00;100940.00;5048598;28;20044;-70
2023/03/19 01:07:42;;;;;;;3.47;1.83;;;;;;;9.53;100.00;100946.03;5039617;28;20029;-70
2023/03/19 01:10:08;;;;;;;3.40;2.28;;;;;;;9.54;100.00;100934.84;5031864;28;20016;-70
2023/03/19 01:12:34;;;;;;;2.90;2.20;;;;;;;9.54;100.00;100934.84;5048172;28;20017;-70
2023/03/19 01:14:59;;;;;;;3.53;1.98;;;;;;;9.53;100.00;100940.84;5047288;28;20017;-70
2023/03/19 01:17:24;;;;;;;5.20;2.95;;;;;;;9.50;100.00;100932.94;5048684;28;20066;-70
2023/03/19 01:19:50;;;;;;;2.80;2.10;;;;;;;9.46;100.00;100942.28;5048004;28;20021;-70
2023/03/19 01:22:16;;;;;;;2.88;1.85;;;;;;;9.44;100.00;100937.91;5048421;28;20047;-70
2023/03/19 01:24:41;;;;;;;3.47;2.10;;;;;;;9.43;100.00;100928.34;5046527;28;20033;-70
2023/03/19 01:27:07;;;;;;;3.65;2.33;;;;;;;9.45;100.00;100935.38;5038475;28;20021;-70
2023/03/19 01:29:33;;;;;;;3.88;2.50;;;;;;;9.45;100.00;100932.78;5032960;28;20037;-70
2023/03/19 01:31:58;;;;;;;3.88;2.75;;;;;;;9.45;100.00;100934.47;5030723;28;20101;-70
2023/03/19 01:34:23;;;;;;;3.15;2.13;;;;;;;9.45;100.00;100929.31;5032564;28;20139;-70
2023/03/19 01:36:49;;;;;;;3.25;2.38;;;;;;;9.44;100.00;100932.72;5030515;28;20026;-70
2023/03/19 01:39:14;;;;;;;4.30;2.35;;;;;;;9.44;100.00;100937.91;5030024;28;20030;-70
2023/03/19 01:41:39;;;;;;;3.20;2.63;;;;;;;9.43;100.00;100930.94;5031037;28;20103;-70
2023/03/19 01:44:36;;;;;;;4.55;3.33;;;;;;;9.43;100.00;100926.66;5038668;28;20060;-70
2023/03/19 01:47:06;;;;;;;3.47;3.17;;;;;;;9.43;100.00;100930.94;5049042;28;20404;-70
2023/03/19 01:49:33;;;;;;;4.10;3.70;;;;;;;9.44;100.00;100924.97;5028937;28;20049;-70
2023/03/19 01:52:03;;;;;;;5.05;3.30;;;;;;;9.43;100.00;100924.06;5041476;28;20034;-70
2023/03/19 01:54:31;;;;;;;5.05;4.00;;;;;;;9.44;100.00;100931.03;5029504;28;20040;-70
2023/03/19 01:57:06;;;;;;;4.07;3.38;;;;;;;9.45;100.00;100924.13;5037696;28;20143;-70
2023/03/19 01:59:38;;;;;;;3.55;3.25;;;;;;;9.46;100.00;100934.53;5054311;28;20060;-70
2023/03/19 02:02:28;;;;;;;3.40;3.10;;;;;;;9.44;100.00;100932.72;5059551;28;20764;-70
2023/03/19 02:04:59;;;;;;;3.47;3.17;;;;;;;9.45;100.00;100934.47;5036882;28;20125;-70
2023/03/19 02:07:26;;;;;;;3.17;2.80;;;;;;;9.45;100.00;100925.03;5043003;28;20029;-70
2023/03/19 02:09:51;;;;;;;3.70;2.63;;;;;;;9.45;100.00;100916.38;5038222;28;20032;-70
2023/03/19 02:12:17;;;;;;;3.72;3.10;;;;;;;9.46;100.00;100920.75;5043586;28;20433;-70
2023/03/19 02:14:42;;;;;;;3.92;2.78;;;;;;;9.46;100.00;100924.19;5044052;28;20044;-69
2023/03/19 02:17:08;;;;;;;3.17;2.47;;;;;;;9.46;100.00;100931.94;5038921;28;20083;-70
2023/03/19 02:19:50;;;;;;;5.20;2.95;;;;;;;9.46;100.00;100931.09;5028669;28;20075;-70
2023/03/19 02:22:18;;;;;;;3.17;2.88;;;;;;;9.45;100.00;100929.31;5027988;28;20096;-70
2023/03/19 02:25:00;;;;;;;3.17;2.88;;;;;;;9.42;100.00;100934.38;5028268;28;20029;-69
2023/03/19 02:27:26;;;;;;;6.45;3.00;;;;;;;9.41;100.00;100932.63;5028286;28;20126;-70
2023/03/19 02:29:51;;;;;;;5.40;3.45;;;;;;;9.39;100.00;100934.25;5028116;28;20159;-69
2023/03/19 02:32:17;;;;;;;4.28;3.20;;;;;;;9.37;100.00;100937.66;5059192;28;20110;-70
2023/03/19 02:34:43;;;;;;;3.83;3.30;;;;;;;9.36;100.00;100935.91;5035984;28;20032;-70
2023/03/19 02:37:15;;;;;;;3.47;2.92;;;;;;;9.36;100.00;100930.72;5035913;28;20025;-69
2023/03/19 02:40:06;;;;;;;5.75;3.38;;;;;;;9.35;100.00;100934.13;5027996;28;20037;-70
2023/03/19 02:42:32;;;;;;;6.13;3.80;;;;;;;9.34;100.00;100932.38;5043718;28;20366;-69
2023/03/19 02:44:57;;;;;;;6.10;3.78;;;;;;;9.34;100.00;100932.38;5037785;28;20051;-70
2023/03/19 02:47:24;;;;;;;4.60;3.67;;;;;;;9.34;100.00;100928.88;5027787;28;20057;-69
2023/03/19 02:49:50;;;;;;;4.10;3.40;;;;;;;9.34;100.00;100936.66;5027847;28;20071;-70
2023/03/19 02:52:15;;;;;;;4.82;3.65;;;;;;;9.36;100.00;100946.25;5027441;28;20042;-70
2023/03/19 02:54:40;;;;;;;4.72;4.22;;;;;;;9.36;100.00;100948.81;5037510;28;20151;-70
2023/03/19 02:57:06;;;;;;;4.22;3.60;;;;;;;9.37;100.00;100948.00;5045702;28;20036;-70
2023/03/19 02:59:31;;;;;;;6.50;4.30;;;;;;;9.38;100.00;100948.88;5047265;28;20020;-70
2023/03/19 03:01:57;;;;;;;4.75;4.20;;;;;;;9.37;100.00;100948.00;5043089;28;20130;-70
2023/03/19 03:04:22;;;;;;;4.75;4.35;;;;;;;9.39;100.00;100945.47;5041536;28;20026;-69
2023/03/19 03:06:47;;;;;;;4.72;4.20;;;;;;;9.41;100.00;100946.41;5054852;28;20028;-70
2023/03/19 03:09:13;;;;;;;6.25;4.13;;;;;;;9.39;100.00;100950.63;5034727;28;20187;-70
2023/03/19 03:11:40;;;;;;;4.32;3.92;;;;;;;9.39;100.00;100944.59;5029358;28;20032;-69
2023/03/19 03:14:06;;;;;;;5.57;4.15;;;;;;;9.38;100.00;100956.66;5047506;28;20375;-70
2023/03/19 03:16:32;;;;;;;6.88;3.85;;;;;;;9.40;100.00;100948.94;5046784;28;20124;-70
2023/03/19 03:18:58;;;;;;;5.60;4.25;;;;;;;9.39;100.00;100954.94;5047440;28;20071;-70
2023/03/19 03:21:24;;;;;;;5.07;4.10;;;;;;;9.39;100.00;100950.63;5046264;28;20025;-70
2023/03/19 03:23:50;;;;;;;4.95;4.25;;;;;;;9.37;100.00;100948.00;5047003;28;20028;-70
2023/03/19 03:26:16;;;;;;;4.95;3.90;;;;;;;9.36;100.00;100951.41;5046996;28;20211;-70
2023/03/19 03:28:42;;;;;;;5.65;4.30;;;;;;;9.36;100.00;100951.41;5047323;28;20025;-70
2023/03/19 03:31:08;;;;;;;4.57;4.18;;;;;;;9.35;100.00;100949.63;5046514;28;20113;-70
2023/03/19 03:33:34;;;;;;;5.45;4.35;;;;;;;9.34;100.00;100950.47;5048592;28;20570;-70
2023/03/19 03:35:59;;;;;;;6.95;5.05;;;;;;;9.34;100.00;100947.88;5049395;28;20044;-69
2023/03/19 03:38:24;;;;;;;7.15;5.15;;;;;;;9.33;100.00;100961.66;5050342;28;20413;-70
2023/03/19 03:40:51;;;;;;;5.50;4.97;;;;;;;9.30;100.00;100956.34;5050196;28;20043;-70
2023/03/19 03:43:17;;;;;;;5.50;4.82;;;;;;;9.29;100.00;100952.00;5059089;28;20016;-69
2023/03/19 03:45:43;;;;;;;5.82;4.32;;;;;;;9.29;100.00;100946.81;5046275;28;20445;-70
2023/03/19 03:48:08;;;;;;;8.48;5.15;;;;;;;9.28;100.00;100952.84;5048917;28;20108;-70
2023/03/19 03:50:34;;;;;;;5.43;4.93;;;;;;;9.24;100.00;100958.69;5045867;28;20563;-70
2023/03/19 03:52:59;;;;;;;6.07;5.22;;;;;;;9.23;100.00;100964.66;5048460;28;20049;-70
2023/03/19 03:55:24;;;;;;;5.85;5.05;;;;;;;9.20;100.00;100959.38;5038344;28;20036;-70
2023/03/19 03:57:50;;;;;;;5.40;4.90;;;;;;;9.16;100.00;100967.84;5038317;28;20029;-70
2023/03/19 04:00:15;;;;;;;5.10;4.60;;;;;;;9.11;100.00;100975.41;5050371;28;20098;-70
2023/03/19 04:02:40;;;;;;;5.70;5.00;;;;;;;9.08;100.00;100976.19;5042726;28;20032;-70
2023/03/19 04:05:06;;;;;;;5.38;4.88;;;;;;;9.06;100.00;100969.19;5032086;28;20033;-70
2023/03/19 04:07:31;;;;;;;5.63;5.00;;;;;;;9.02;100.00;100970.75;5055291;28;20017;-69
2023/03/19 04:09:58;;;;;;;5.25;4.75;;;;;;;9.00;100.00;100967.22;5043640;28;20040;-69
2023/03/19 04:12:23;;;;;;;6.78;5.00;;;;;;;8.98;100.00;100971.44;5030984;28;20028;-70
2023/03/19 04:14:49;;;;;;;6.20;5.43;;;;;;;8.94;100.00;100970.44;5031849;28;20025;-69
2023/03/19 04:17:14;;;;;;;6.40;5.68;;;;;;;8.89;100.00;100970.25;5044510;28;20025;-70
2023/03/19 04:19:42;;;;;;;6.55;5.85;;;;;;;8.88;100.00;100970.19;5036658;28;20589;-70
2023/03/19 04:22:07;;;;;;;7.43;6.68;;;;;;;8.83;100.00;100970.00;5050710;28;20029;-70
2023/03/19 04:24:32;;;;;;;8.82;6.68;;;;;;;8.82;100.00;100967.34;5044718;28;20037;-69
2023/03/19 04:26:58;;;;;;;8.95;6.95;;;;;;;8.79;100.00;100969.81;5049988;28;20028;-69
2023/03/19 04:29:23;;;;;;;7.47;6.47;;;;;;;8.75;100.00;100974.88;5047847;28;20029;-69
2023/03/19 04:31:49;;;;;;;6.82;6.00;;;;;;;8.72;100.00;100973.84;5049360;28;20025;-70
2023/03/19 04:34:15;;;;;;;6.72;6.13;;;;;;;8.68;100.00;100974.53;5047319;28;20082;-69
2023/03/19 04:36:40;;;;;;;6.43;5.82;;;;;;;8.66;100.00;100969.31;5049677;28;20045;-70
2023/03/19 04:39:05;;;;;;;8.60;7.00;;;;;;;8.63;100.00;100972.63;5048269;28;20025;-69
2023/03/19 04:41:31;;;;;;;8.07;7.03;;;;;;;8.60;100.00;100971.66;5049102;28;20047;-69
2023/03/19 04:43:56;;;;;;;7.22;6.22;;;;;;;8.55;100.00;100968.81;5049681;28;20214;-69
2023/03/19 04:46:22;;;;;;;8.00;7.10;;;;;;;8.51;100.00;100972.06;5048179;28;20052;-69
2023/03/19 04:48:47;;;;;;;8.48;7.28;;;;;;;8.48;100.00;100969.38;5049034;28;20025;-70
2023/03/19 04:51:12;;;;;;;9.13;8.23;;;;;;;8.46;100.00;100973.59;5048957;28;20158;-69
2023/03/19 04:53:38;;;;;;;10.52;8.35;;;;;;;8.43;100.00;100969.19;5048095;28;20057;-70
2023/03/19 04:56:05;;;;;;;9.63;8.73;;;;;;;8.43;100.00;100981.22;5049204;28;20020;-69
2023/03/19 04:58:31;;;;;;;10.00;9.00;;;;;;;8.39;100.00;100983.66;5048930;28;20108;-70
2023/03/19 05:00:56;;;;;;;11.18;10.18;;;;;;;8.36;100.00;100983.53;5029647;28;20159;-69
2023/03/19 05:03:21;;;;;;;11.85;10.77;;;;;;;8.34;100.00;100990.34;5030028;28;20380;-69
2023/03/19 05:05:47;;;;;;;12.77;11.63;;;;;;;8.33;100.00;100987.69;5042988;28;20025;-69
2023/03/19 05:08:12;;;;;;;13.52;12.32;;;;;;;8.30;100.00;100996.16;5056291;28;20489;-70
2023/03/19 05:10:38;;;;;;;15.80;14.35;;;;;;;8.27;100.00;100996.03;5048944;28;20037;-70
2023/03/19 05:13:05;;;;;;;17.08;15.55;;;;;;;8.24;100.00;100995.91;5048750;28;20083;-70
2023/03/19 05:15:30;;;;;;;18.20;16.55;;;;;;;8.22;100.00;100995.81;5049165;28;20025;-69
2023/03/19 05:17:56;;;;;;;17.80;16.20;;;;;;;8.19;100.00;100994.78;5041999;28;20120;-70
2023/03/19 05:20:22;;;;;;;16.27;14.52;;;;;;;8.16;100.00;100996.47;5049385;28;20017;-70
2023/03/19 05:22:48;;;;;;;13.45;12.25;;;;;;;8.13;100.00;100996.28;5047754;28;20021;-69
2023/03/19 05:25:14;;;;;;;13.25;11.95;;;;;;;8.13;100.00;100995.44;5034631;28;20104;-69
2023/03/19 05:27:39;;;;;;;13.20;12.00;;;;;;;8.10;100.00;101003.91;5031758;28;20025;-69
2023/03/19 05:30:05;;;;;;;11.80;10.80;;;;;;;8.07;100.00;101006.38;5032696;28;20346;-69
2023/03/19 05:32:31;;;;;;;10.88;9.75;;;;;;;8.05;100.00;101006.31;5036309;28;20021;-69
2023/03/19 05:34:57;;;;;;;11.10;9.95;;;;;;;8.02;100.00;101003.56;5041298;28;20441;-69
2023/03/19 05:37:22;;;;;;;9.68;8.63;;;;;;;8.00;100.00;101010.38;5031925;28;20382;-69
2023/03/19 05:39:48;;;;;;;10.48;9.27;;;;;;;7.98;100.00;101022.31;5045085;28;20051;-69
2023/03/19 05:42:13;;;;;;;10.60;9.50;;;;;;;7.96;100.00;101017.88;5032363;28;20442;-69
2023/03/19 05:44:39;;;;;;;9.30;8.40;;;;;;;7.92;100.00;101015.16;5033075;28;20576;-69
2023/03/19 05:47:04;;;;;;;10.77;9.18;;;;;;;7.89;100.00;101016.72;5033814;28;20029;-69
2023/03/19 05:49:30;;;;;;;9.23;8.43;;;;;;;7.86;100.00;101020.03;5037459;28;20168;-69
2023/03/19 05:51:55;;;;;;;10.32;9.32;;;;;;;7.83;100.00;101022.47;5033813;28;20029;-69
2023/03/19 05:54:20;;;;;;;9.70;8.70;;;;;;;7.80;100.00;101027.50;5039768;28;20008;-69
2023/03/19 05:56:46;;;;;;;9.50;8.52;;;;;;;7.77;100.00;101032.53;5027638;28;20033;-70
2023/03/19 05:59:11;;;;;;;12.60;9.50;;;;;;;7.77;100.00;101032.53;5047263;28;20025;-70
2023/03/19 06:01:36;;;;;;;11.27;10.07;;;;;;;7.75;100.00;101034.16;5048625;28;20083;-69
2023/03/19 06:04:02;;;;;;;11.82;9.30;;;;;;;7.74;100.00;101032.38;5047883;28;20029;-69
2023/03/19 06:06:27;;;;;;;10.55;9.40;;;;;;;7.72;100.00;101021.13;5060434;28;20033;-69
2023/03/19 06:08:52;;;;;;;11.43;9.32;;;;;;;7.71;100.00;101032.22;5048606;28;20024;-69
2023/03/19 06:11:18;;;;;;;10.32;9.30;;;;;;;7.70;100.00;101031.34;5048173;28;20396;-69
2023/03/19 06:13:45;;;;;;;11.63;9.38;;;;;;;7.72;100.00;101034.88;5047854;28;20476;-69
2023/03/19 06:16:10;;;;;;;13.13;11.63;;;;;;;7.73;100.00;101036.66;5047903;28;20021;-69
2023/03/19 06:18:36;;;;;;;13.93;10.55;;;;;;;7.79;100.00;101046.38;5047029;28;20025;-69
2023/03/19 06:21:01;;;;;;;14.02;12.30;;;;;;;7.83;100.00;101050.88;5047830;28;20032;-69
2023/03/19 06:23:26;;;;;;;14.23;11.38;;;;;;;7.85;100.00;101046.66;5047218;28;20052;-69
2023/03/19 06:25:52;;;;;;;15.27;12.30;;;;;;;7.88;100.00;101049.38;5047381;28;20032;-69
2023/03/19 06:28:17;;;;;;;13.18;11.75;;;;;;;7.92;100.00;101053.88;5046452;28;20056;-69
2023/03/19 06:30:43;;;;;;;14.23;12.68;;;;;;;7.96;100.00;101054.00;5035704;28;20120;-69
2023/03/19 06:33:08;;;;;;;14.07;12.07;;;;;;;7.98;100.00;101053.28;5041642;28;20017;-69
2023/03/19 06:35:33;;;;;;;15.00;13.40;;;;;;;8.03;100.00;101061.22;5028236;28;20029;-69
2023/03/19 06:37:59;;;;;;;17.23;14.85;;;;;;;8.09;100.00;101061.53;5032583;28;20021;-69
2023/03/19 06:40:24;;;;;;;17.23;15.15;;;;;;;8.13;100.00;101067.72;5047971;28;20040;-69
2023/03/19 06:42:51;;;;;;;19.80;17.90;;;;;;;8.18;100.00;101061.06;5032868;28;20045;-69
2023/03/19 06:45:18;;;;;;;21.13;18.85;;;;;;;8.22;100.00;101072.41;5032111;28;20065;-69
2023/03/19 06:47:43;;;;;;;19.35;17.55;;;;;;;8.26;100.00;101069.13;5037087;28;20020;-69
2023/03/19 06:50:11;;;;;;;20.40;18.23;;;;;;;8.25;100.00;101067.38;5030059;28;20536;-69
2023/03/19 06:52:36;;;;;;;18.63;16.55;;;;;;;8.27;100.00;101076.09;5039013;28;20386;-69
2023/03/19 06:55:03;;;;;;;17.80;16.05;;;;;;;8.29;100.00;101079.63;5033084;28;20032;-69
2023/03/19 06:57:28;;;;;;;16.60;14.40;;;;;;;8.33;100.00;101080.66;5041353;28;20056;-69
2023/03/19 06:59:54;;;;;;;16.90;15.20;;;;;;;8.35;100.00;101084.16;5027190;28;20026;-69
2023/03/19 07:02:19;;;;;;;17.90;14.55;;;;;;;8.37;100.00;101083.41;5029118;28;20083;-69
2023/03/19 07:04:45;;;;;;;20.23;15.23;;;;;;;8.51;100.00;101086.63;5028587;28;20060;-69
2023/03/19 07:07:10;;;;;;;17.15;15.18;;;;;;;8.79;100.00;101079.25;5037566;28;20020;-69
2023/03/19 07:09:35;;;;;;;15.40;13.27;;;;;;;9.04;100.00;101081.97;5041303;28;20025;-69
2023/03/19 07:12:01;;;;;;;15.05;12.60;;;;;;;9.21;100.00;101090.47;5039904;28;20362;-69
2023/03/19 07:14:26;;;;;;;14.15;12.02;;;;;;;9.33;100.00;101098.72;5035531;28;20029;-69
2023/03/19 07:16:51;;;;;;;12.40;11.13;;;;;;;9.47;100.00;101099.28;5040686;28;20128;-69
2023/03/19 07:19:19;;;;;;;12.27;10.80;;;;;;;9.57;100.00;101100.53;5041584;28;20033;-69
2023/03/19 07:21:45;;;;;;;12.90;10.57;;;;;;;9.68;100.00;101107.81;5046222;28;20043;-69
2023/03/19 07:24:10;;;;;;;10.82;9.63;;;;;;;9.90;100.00;101113.84;5043823;28;20464;-69
2023/03/19 07:26:36;;;;;;;11.30;10.10;;;;;;;10.00;100.00;101115.13;5043752;28;20052;-70
2023/03/19 07:29:01;;;;;;;11.63;10.32;;;;;;;10.11;100.00;101118.97;5039514;28;20036;-69
2023/03/19 07:31:26;;;;;;;10.18;9.15;;;;;;;10.26;100.00;101128.16;5044217;28;20032;-69
2023/03/19 07:33:52;;;;;;;11.48;9.30;;;;;;;10.40;100.00;101120.91;5042453;28;20025;-69
2023/03/19 07:36:17;;;;;;;9.60;8.60;;;;;;;10.57;100.00;101132.84;5051319;28;20021;-69
2023/03/19 07:38:42;;;;;;;10.23;9.05;;;;;;;10.54;100.00;101130.13;5047221;28;20028;-69
2023/03/19 07:41:08;;;;;;;10.50;8.98;;;;;;;10.80;100.00;101127.59;5044007;28;20099;-69
2023/03/19 07:43:33;;;;;;;10.13;8.60;;;;;;;11.05;100.00;101120.69;5042301;28;20103;-69
2023/03/19 07:46:01;;;;;;;9.82;7.10;;;;;;;11.00;100.00;101123.94;5047750;28;20483;-69
2023/03/19 07:48:27;;;;;;;9.57;7.25;;;;;;;10.85;100.00;101124.31;5045891;28;20045;-69
2023/03/19 07:50:53;;;;;;;10.20;7.50;;;;;;;10.70;100.00;101125.50;5045764;28;20028;-69
2023/03/19 07:53:19;;;;;;;7.93;6.22;;;;;;;10.54;100.00;101124.94;5044968;28;20053;-69
2023/03/19 07:55:45;;;;;;;8.25;6.68;;;;;;;10.43;100.00;101132.28;5047713;28;20033;-69
2023/03/19 07:58:11;;;;;;;7.65;6.88;;;;;;;10.58;100.00;101131.09;5046104;28;20063;-69
2023/03/19 08:00:36;;;;;;;9.00;7.22;;;;;;;10.90;100.00;101133.13;5053958;28;20077;-69
2023/03/19 08:03:01;;;;;;;7.88;6.78;;;;;;;11.33;100.00;101145.81;5047190;28;20028;-69
2023/03/19 08:05:27;;;;;;;9.60;7.07;;;;;;;11.69;100.00;101134.00;5049442;28;20028;-68
2023/03/19 08:07:52;;;;;;;8.95;7.15;;;;;;;11.83;100.00;101144.81;5052820;28;20034;-68
2023/03/19 08:10:18;;;;;;;10.52;7.03;;;;;;;11.64;100.00;101139.91;5037886;28;20052;-67
2023/03/19 08:12:43;;;;;;;7.22;5.95;;;;;;;12.04;100.00;101144.59;5042869;28;20037;-67
2023/03/19 08:15:10;;;;;;;7.97;6.20;;;;;;;12.37;100.00;101150.81;5045065;28;20687;-68
2023/03/19 08:17:37;;;;;;;10.52;5.93;;;;;;;12.50;100.00;101144.25;5044479;28;20570;-67
2023/03/19 08:20:10;;;;;;;6.30;5.60;;;;;;;12.93;100.00;101144.53;5040181;28;20426;-68
2023/03/19 08:22:37;;;;;;;9.48;6.03;;;;;;;13.58;100.00;101149.72;5047639;28;20200;-68
2023/03/19 08:25:04;;;;;;;7.05;5.60;;;;;;;13.91;100.00;101153.94;5046920;28;20036;-68
2023/03/19 08:27:30;;;;;;;14.98;5.03;;;;;;;14.10;100.00;101158.72;5048219;28;20539;-68
2023/03/19 08:29:56;;;;;;;7.45;4.30;;;;;;;13.97;100.00;101158.44;5043137;28;20047;-68
2023/03/19 08:32:22;;;;;;;7.25;4.53;;;;;;;13.73;100.00;101162.22;5038049;28;20028;-68
2023/03/19 08:34:47;;;;;;;9.15;5.00;;;;;;;13.60;100.00;101158.41;5036721;28;20445;-68
2023/03/19 08:37:12;;;;;;;7.90;5.70;;;;;;;13.70;100.00;101164.75;5033925;28;20025;-68
2023/03/19 08:39:38;;;;;;;8.68;5.38;;;;;;;13.71;100.00;101169.09;5037937;28;20067;-68
2023/03/19 08:42:03;;;;;;;6.68;4.50;;;;;;;13.77;100.00;101169.25;5033493;28;20112;-68
2023/03/19 08:44:29;;;;;;;12.70;5.15;;;;;;;13.71;100.00;101173.44;5037551;28;20055;-68
2023/03/19 08:46:54;;;;;;;10.48;5.40;;;;;;;13.68;100.00;101182.94;5034502;28;20366;-68
2023/03/19 08:49:19;;;;;;;10.55;4.60;;;;;;;13.52;100.00;101176.47;5043698;28;20028;-68
2023/03/19 08:51:45;;;;;;;12.38;5.28;;;;;;;13.39;100.00;101176.94;5035321;28;20438;-68
2023/03/19 08:54:12;;;;;;;9.85;5.05;;;;;;;13.20;100.00;101172.16;5038572;28;20551;-68
2023/03/19 08:56:37;;;;;;;11.60;4.97;;;;;;;13.03;100.00;101187.31;5029025;28;20029;-68
2023/03/19 08:59:02;;;;;;;10.68;4.95;;;;;;;12.82;100.00;101193.69;5046225;28;20429;-68
2023/03/19 09:01:28;;;;;;;10.35;5.18;;;;;;;12.59;100.00;101190.44;5049637;28;20199;-69
2023/03/19 09:03:53;;;;;;;11.13;6.47;;;;;;;12.53;100.00;101190.22;5054087;28;20430;-68
2023/03/19 09:06:18;;;;;;;14.50;5.75;;;;;;;12.42;100.00;101196.00;5068275;28;20094;-68
2023/03/19 09:08:44;;;;;;;7.20;4.93;;;;;;;12.36;100.00;101194.09;5051224;28;20025;-68
2023/03/19 09:11:09;;;;;;;10.20;6.05;;;;;;;12.18;100.00;101194.41;5038863;28;20520;-68
2023/03/19 09:13:36;;;;;;;10.60;5.60;;;;;;;12.15;100.00;101191.72;5047130;28;20056;-68
2023/03/19 09:16:01;;;;;;;11.38;5.90;;;;;;;11.96;100.00;101201.47;5049307;28;20036;-68
2023/03/19 09:18:26;;;;;;;9.98;5.22;;;;;;;12.01;100.00;101206.84;5044086;28;20029;-68
2023/03/19 09:20:53;;;;;;;10.65;5.95;;;;;;;11.94;100.00;101207.47;5029668;28;20531;-69
2023/03/19 09:23:19;;;;;;;8.85;5.55;;;;;;;11.75;100.00;101206.84;5029360;28;20124;-68
2023/03/19 09:25:45;;;;;;;12.45;4.90;;;;;;;11.67;100.00;101217.00;5029336;28;20053;-68
2023/03/19 09:28:11;;;;;;;10.75;4.05;;;;;;;11.64;100.00;101217.78;5030087;28;20637;-68
2023/03/19 09:30:37;;;;;;;9.88;4.40;;;;;;;11.69;100.00;101204.06;5029720;28;20025;-68
2023/03/19 09:33:03;;;;;;;9.57;3.78;;;;;;;11.82;100.00;101220.94;5034799;28;20090;-68
2023/03/19 09:35:30;;;;;;;11.20;4.13;;;;;;;12.04;100.00;101212.13;5037500;28;20108;-68
2023/03/19 09:37:57;;;;;;;10.52;3.90;;;;;;;12.28;100.00;101218.97;5029887;28;20021;-68
2023/03/19 09:40:45;;;;;;;12.27;4.53;;;;;;;12.60;100.00;101233.78;5029390;28;20474;-68
2023/03/19 09:43:30;;;;;;;11.05;4.25;;;;;;;12.76;100.00;101229.00;5029093;28;20057;-69
2023/03/19 09:45:57;;;;;;;12.32;3.90;;;;;;;12.83;100.00;101229.25;5029483;28;20060;-68
2023/03/19 09:48:34;;;;;;;9.88;4.35;;;;;;;12.94;100.00;101234.75;5029457;28;20025;-68
2023/03/19 09:51:05;;;;;;;8.93;3.58;;;;;;;13.04;100.00;101241.09;5029147;28;20359;-68
2023/03/19 09:53:56;;;;;;;10.88;5.03;;;;;;;13.24;100.00;101245.13;5029718;28;20107;-68
2023/03/19 09:56:21;;;;;;;9.85;3.63;;;;;;;13.54;100.00;101233.78;5029597;28;20112;-69
2023/03/19 09:58:47;;;;;;;8.75;4.05;;;;;;;13.81;100.00;101235.34;5044586;28;20033;-68
2023/03/19 10:01:24;;;;;;;7.80;3.50;;;;;;;14.09;100.00;101230.78;5048842;28;20112;-68
2023/03/19 10:04:13;;;;;;;10.45;4.60;;;;;;;14.16;100.00;101232.69;5048037;28;20413;-68
2023/03/19 10:06:39;;;;;;;13.10;4.57;;;;;;;14.36;100.00;101232.25;5060612;28;20377;-68
2023/03/19 10:09:36;;;;;;;9.23;3.78;;;;;;;14.52;100.00;101240.41;5048476;28;20024;-68
2023/03/19 10:12:13;;;;;;;9.55;4.07;;;;;;;14.68;100.00;101239.03;5032339;28;20080;-68
2023/03/19 10:15:14;;;;;;;7.30;4.40;;;;;;;14.78;98.54;101247.94;5029492;28;20021;-69
2023/03/19 10:17:48;;;;;;;11.45;4.45;;;;;;;14.84;99.38;101250.69;5029230;28;20100;-68
2023/03/19 10:20:26;;;;;;;11.32;4.88;;;;;;;14.88;96.66;101244.69;5034245;28;20017;-68
2023/03/19 10:23:02;;;;;;;8.45;4.00;;;;;;;14.92;95.55;101249.97;5035009;28;20080;-69
2023/03/19 10:25:31;;;;;;;11.52;3.55;;;;;;;14.93;94.00;101246.53;5029257;28;20029;-68
2023/03/19 10:28:10;;;;;;;6.15;3.03;;;;;;;14.95;94.51;101239.63;5030231;28;20051;-69
2023/03/19 10:30:36;;;;;;;10.63;3.50;;;;;;;15.12;94.51;101243.44;5029258;28;20371;-69
2023/03/19 10:33:13;;;;;;;10.55;3.53;;;;;;;15.22;96.95;101238.38;5029610;28;20080;-69
2023/03/19 10:35:43;;;;;;;11.00;3.65;;;;;;;15.03;91.97;101243.25;5029753;28;20025;-69
2023/03/19 10:38:23;;;;;;;10.35;3.22;;;;;;;15.22;96.49;101248.81;5029514;28;20493;-69
2023/03/19 10:41:00;;;;;;;10.33;3.70;;;;;;;15.43;95.97;101250.09;5042693;28;20162;-69
2023/03/19 10:43:26;;;;;;;10.02;3.92;;;;;;;15.65;96.79;101247.88;5032457;28;20385;-68
2023/03/19 10:45:53;;;;;;;8.32;2.85;;;;;;;15.86;98.33;101247.34;5028995;28;20021;-69
2023/03/19 10:48:18;;;;;;;7.70;3.17;;;;;;;16.10;96.48;101247.75;5028716;28;20025;-69
2023/03/19 10:50:59;;;;;;;7.90;2.97;;;;;;;16.30;95.40;101248.03;5044941;28;20039;-69
2023/03/19 10:53:30;;;;;;;10.10;3.65;;;;;;;16.41;94.59;101251.69;5028227;28;20136;-69
2023/03/19 10:56:02;;;;;;;10.48;2.97;;;;;;;16.33;91.43;101256.81;5028615;28;20032;-69
2023/03/19 10:58:30;;;;;;;6.82;3.00;;;;;;;16.19;92.16;101259.22;5041119;28;20044;-69
2023/03/19 11:01:08;;;;;;;11.45;3.22;;;;;;;15.97;92.06;101258.84;5040757;28;20536;-69
2023/03/19 11:03:35;;;;;;;11.30;3.53;;;;;;;15.71;91.26;101269.75;5043387;28;20039;-69
2023/03/19 11:06:17;;;;;;;9.05;2.85;;;;;;;15.44;92.49;101262.28;5055034;28;20032;-69
2023/03/19 11:08:54;;;;;;;9.15;3.28;;;;;;;15.38;94.59;101270.03;5045691;28;20053;-69
2023/03/19 11:11:41;;;;;;;10.07;3.08;;;;;;;15.47;95.71;101264.97;5027682;28;20080;-69
2023/03/19 11:14:19;;;;;;;9.18;3.17;;;;;;;15.51;94.77;101266.78;5027951;28;20025;-69
2023/03/19 11:16:53;;;;;;;11.48;2.97;;;;;;;15.43;95.47;101264.03;5031468;28;20485;-69
2023/03/19 11:19:23;;;;;;;8.60;2.85;;;;;;;15.35;96.09;101266.50;5035867;28;20022;-69
2023/03/19 11:22:11;;;;;;;7.93;3.40;;;;;;;15.29;95.53;101265.50;5045978;28;20053;-69